createdAt,value
2017-06-10T00:00:03.353Z,1016.97
2017-06-10T00:05:02.659Z,1017.05
2017-06-10T00:10:03.153Z,1016.95
2017-06-10T00:15:03.492Z,1017
2017-06-10T00:20:02.853Z,1017.05
2017-06-10T00:25:03.179Z,1016.98
2017-06-10T00:30:02.535Z,1017.06
2017-06-10T00:35:02.901Z,1017.06
2017-06-10T00:40:03.327Z,1017.04
2017-06-10T00:45:02.787Z,1017.2
2017-06-10T00:50:03.215Z,1017.24
2017-06-10T00:55:02.621Z,1017.33
2017-06-10T01:00:02.934Z,1017.29
2017-06-10T01:05:03.295Z,1017.28
2017-06-10T01:10:02.872Z,1017.44
2017-06-10T01:15:03.237Z,1017.35
2017-06-10T01:20:02.679Z,1017.35
2017-06-10T01:25:03.123Z,1017.42
2017-06-10T01:30:03.536Z,1017.45
2017-06-10T01:35:03.170Z,1017.51
2017-06-10T01:40:02.540Z,1017.56
2017-06-10T01:45:02.877Z,1017.55
2017-06-10T01:50:03.415Z,1017.53
2017-06-10T01:55:02.738Z,1017.58
2017-06-10T02:00:03.142Z,1017.63
2017-06-10T02:05:03.542Z,1017.57
2017-06-10T02:10:02.976Z,1017.66
2017-06-10T02:15:03.372Z,1017.66
2017-06-10T02:20:02.785Z,1017.63
2017-06-10T02:25:03.245Z,1017.71
2017-06-10T02:30:02.599Z,1017.81
2017-06-10T02:35:03.020Z,1017.76
2017-06-10T02:40:03.573Z,1017.7
2017-06-10T02:45:02.908Z,1017.68
2017-06-10T02:50:03.514Z,1017.8
2017-06-10T02:55:02.804Z,1017.79
2017-06-10T03:00:03.116Z,1017.81
2017-06-10T03:05:02.548Z,1017.89
2017-06-10T03:10:03.095Z,1017.94
2017-06-10T03:15:03.471Z,1017.89
2017-06-10T03:20:02.806Z,1017.88
2017-06-10T03:25:03.271Z,1018.02
2017-06-10T03:30:02.655Z,1018.06
2017-06-10T03:35:03.081Z,1018.08
2017-06-10T03:40:03.496Z,1018.24
2017-06-10T03:45:02.932Z,1018.38
2017-06-10T03:50:03.290Z,1018.37
2017-06-10T03:55:02.732Z,1018.33
2017-06-10T04:00:03.069Z,1018.41
2017-06-10T04:05:02.665Z,1018.41
2017-06-10T04:10:03.056Z,1018.39
2017-06-10T04:15:03.504Z,1018.3
2017-06-10T04:20:02.972Z,1018.36
2017-06-10T04:25:03.562Z,1018.46
2017-06-10T04:30:02.888Z,1018.4
2017-06-10T04:35:03.403Z,1018.38
2017-06-10T04:40:02.836Z,1018.48
2017-06-10T04:45:03.294Z,1018.64
2017-06-10T04:50:02.673Z,1018.71
2017-06-10T04:55:03.033Z,1018.71
2017-06-10T05:00:03.525Z,1018.71
2017-06-10T05:05:02.870Z,1018.84
2017-06-10T05:10:03.472Z,1018.79
2017-06-10T05:15:02.901Z,1018.81
2017-06-10T05:20:03.277Z,1018.79
2017-06-10T05:25:02.866Z,1018.79
2017-06-10T05:30:03.278Z,1018.73
2017-06-10T05:35:02.860Z,1018.83
2017-06-10T05:40:03.275Z,1018.91
2017-06-10T05:45:02.740Z,1018.91
2017-06-10T05:50:03.058Z,1019.02
2017-06-10T05:55:03.595Z,1019.03
2017-06-10T06:00:03.040Z,1019.14
2017-06-10T06:05:03.536Z,1019.21
2017-06-10T06:10:03.101Z,1019.3
2017-06-10T06:15:03.453Z,1019.29
2017-06-10T06:20:02.747Z,1019.46
2017-06-10T06:25:03.328Z,1019.46
2017-06-10T06:30:02.797Z,1019.53
2017-06-10T06:35:03.301Z,1019.57
2017-06-10T06:40:02.812Z,1019.57
2017-06-10T06:45:03.259Z,1019.64
2017-06-10T06:50:02.861Z,1019.74
2017-06-10T06:55:03.303Z,1019.83
2017-06-10T07:00:02.628Z,1019.87
2017-06-10T07:05:03.147Z,1019.86
2017-06-10T07:10:02.569Z,1019.87
2017-06-10T07:15:02.909Z,1019.89
2017-06-10T07:20:03.338Z,1020
2017-06-10T07:25:03.116Z,1019.96
2017-06-10T07:30:03.499Z,1019.9
2017-06-10T07:35:02.905Z,1019.93
2017-06-10T07:40:03.533Z,1019.9
2017-06-10T07:45:02.894Z,1019.98
2017-06-10T07:50:03.263Z,1019.96
2017-06-10T07:55:02.797Z,1020
2017-06-10T08:00:03.382Z,1019.98
2017-06-10T08:05:02.901Z,1020.01
2017-06-10T08:10:03.533Z,1020.1
2017-06-10T08:15:02.975Z,1020.09
2017-06-10T08:20:03.466Z,1020.21
2017-06-10T08:25:02.790Z,1020.04
2017-06-10T08:30:03.343Z,1020.03
2017-06-10T08:35:02.790Z,1020.08
2017-06-10T08:40:03.370Z,1020.05
2017-06-10T08:45:02.830Z,1019.97
2017-06-10T08:50:03.213Z,1020.02
2017-06-10T08:55:02.572Z,1020.11
2017-06-10T09:00:03.043Z,1020.18
2017-06-10T09:05:03.470Z,1020.12
2017-06-10T09:10:03.150Z,1020.21
2017-06-10T09:15:02.630Z,1020.23
2017-06-10T09:20:03.094Z,1020.11
2017-06-10T09:25:03.107Z,1019.99
2017-06-10T09:30:03.078Z,1020.17
2017-06-10T09:35:02.767Z,1020.17
2017-06-10T09:40:02.645Z,1020.02
2017-06-10T09:45:03.211Z,1020.01
2017-06-10T09:50:02.654Z,1019.97
2017-06-10T09:55:03.231Z,1019.97
2017-06-10T10:00:03.296Z,1020.11
2017-06-10T10:05:02.717Z,1020.07
2017-06-10T10:10:02.611Z,1020.19
2017-06-10T10:15:02.615Z,1020.2
2017-06-10T10:20:03.493Z,1020.25
2017-06-10T10:25:03.448Z,1020.16
2017-06-10T10:30:02.635Z,1020.17
2017-06-10T10:35:03.210Z,1020.02
2017-06-10T10:40:03.179Z,1020.15
2017-06-10T10:45:03.151Z,1020.19
2017-06-10T10:50:03.232Z,1020.14
2017-06-10T10:55:02.676Z,1020.24
2017-06-10T11:00:03.325Z,1020.2
2017-06-10T11:05:02.514Z,1020.21
2017-06-10T11:10:02.980Z,1020.01
2017-06-10T11:15:02.713Z,1019.98
2017-06-10T11:20:03.322Z,1020.15
2017-06-10T11:25:02.838Z,1020.03
2017-06-10T11:30:03.423Z,1019.96
2017-06-10T11:35:02.929Z,1019.96
2017-06-10T11:40:03.309Z,1019.92
2017-06-10T11:45:02.525Z,1019.96
2017-06-10T11:50:03.070Z,1019.89
2017-06-10T11:55:02.910Z,1019.86
2017-06-10T12:00:03.457Z,1019.79
2017-06-10T12:05:02.687Z,1019.83
2017-06-10T12:10:02.532Z,1019.8
2017-06-10T12:15:03.159Z,1019.58
2017-06-10T12:20:03.204Z,1019.62
2017-06-10T12:25:02.631Z,1019.71
2017-06-10T12:30:03.316Z,1019.58
2017-06-10T12:35:02.555Z,1019.56
2017-06-10T12:40:02.929Z,1019.48
2017-06-10T12:45:03.176Z,1019.38
2017-06-10T12:50:03.491Z,1019.38
2017-06-10T12:55:03.193Z,1019.33
2017-06-10T13:00:03.477Z,1019.33
2017-06-10T13:05:02.566Z,1019.34
2017-06-10T13:10:02.842Z,1019.34
2017-06-10T13:15:02.651Z,1019.24
2017-06-10T13:20:03.058Z,1019.29
2017-06-10T13:25:03.078Z,1019.33
2017-06-10T13:30:02.885Z,1019.32
2017-06-10T13:35:03.113Z,1019.32
2017-06-10T13:40:02.570Z,1019.32
2017-06-10T13:45:03.275Z,1019.4
2017-06-10T13:50:02.613Z,1019.46
2017-06-10T13:55:03.227Z,1019.36
2017-06-10T14:00:03.292Z,1019.2
2017-06-10T14:05:03.439Z,1019.32
2017-06-10T14:10:02.961Z,1019.35
2017-06-10T14:15:02.942Z,1019.29
2017-06-10T14:20:03.200Z,1019.3
2017-06-10T14:25:02.564Z,1019.3
2017-06-10T14:30:02.654Z,1019.26
2017-06-10T14:35:02.998Z,1019.19
2017-06-10T14:40:02.689Z,1019.3
2017-06-10T14:45:02.923Z,1019.25
2017-06-10T14:50:03.088Z,1019.14
2017-06-10T14:55:03.321Z,1019.17
2017-06-10T15:00:02.654Z,1019.05
2017-06-10T15:05:03.221Z,1019.09
2017-06-10T15:10:03.530Z,1019.04
2017-06-10T15:15:02.993Z,1019.02
2017-06-10T15:20:03.414Z,1018.9
2017-06-10T15:25:02.750Z,1018.79
2017-06-10T15:30:02.918Z,1018.81
2017-06-10T15:35:03.371Z,1018.81
2017-06-10T15:40:03.396Z,1018.8
2017-06-10T15:45:02.715Z,1018.62
2017-06-10T15:50:03.045Z,1018.79
2017-06-10T15:55:03.046Z,1018.66
2017-06-10T16:00:03.301Z,1018.65
2017-06-10T16:05:02.840Z,1018.67
2017-06-10T16:10:03.056Z,1018.55
2017-06-10T16:15:03.179Z,1018.57
2017-06-10T16:20:03.110Z,1018.62
2017-06-10T16:25:03.368Z,1018.57
2017-06-10T16:30:02.607Z,1018.52
2017-06-10T16:35:02.734Z,1018.58
2017-06-10T16:40:03.193Z,1018.63
2017-06-10T16:45:03.031Z,1018.63
2017-06-10T16:50:03.580Z,1018.65
2017-06-10T16:55:03.359Z,1018.57
2017-06-10T17:00:03.369Z,1018.54
2017-06-10T17:05:02.947Z,1018.55
2017-06-10T17:10:02.965Z,1018.56
2017-06-10T17:15:02.799Z,1018.47
2017-06-10T17:20:02.814Z,1018.54
2017-06-10T17:25:03.466Z,1018.6
2017-06-10T17:30:03.479Z,1018.62
2017-06-10T17:35:03.203Z,1018.63
2017-06-10T17:40:02.470Z,1018.67
2017-06-10T17:45:02.815Z,1018.62
2017-06-10T17:50:03.300Z,1018.63
2017-06-10T17:55:02.775Z,1018.58
2017-06-10T18:00:02.998Z,1018.66
2017-06-10T18:05:03.440Z,1018.61
2017-06-10T18:10:03.295Z,1018.62
2017-06-10T18:15:03.375Z,1018.54
2017-06-10T18:20:02.933Z,1018.53
2017-06-10T18:25:03.180Z,1018.47
2017-06-10T18:30:03.242Z,1018.45
2017-06-10T18:35:03.249Z,1018.44
2017-06-10T18:40:03.140Z,1018.41
2017-06-10T18:45:02.765Z,1018.41
2017-06-10T18:50:03.260Z,1018.4
2017-06-10T18:55:02.735Z,1018.4
2017-06-10T19:00:02.719Z,1018.43
2017-06-10T19:05:03.021Z,1018.45
2017-06-10T19:10:03.293Z,1018.36
2017-06-10T19:15:02.921Z,1018.34
2017-06-10T19:20:03.097Z,1018.35
2017-06-10T19:25:03.098Z,1018.36
2017-06-10T19:30:02.659Z,1018.32
2017-06-10T19:35:02.651Z,1018.35
2017-06-10T19:40:02.676Z,1018.34
2017-06-10T19:45:03.002Z,1018.36
2017-06-10T19:50:03.507Z,1018.33
2017-06-10T19:55:03.439Z,1018.38
2017-06-10T20:00:03.226Z,1018.39
2017-06-10T20:05:03.419Z,1018.47
2017-06-10T20:10:03.470Z,1018.46
2017-06-10T20:15:03.326Z,1018.47
2017-06-10T20:20:03.344Z,1018.52
2017-06-10T20:25:03.279Z,1018.49
2017-06-10T20:30:03.304Z,1018.47
2017-06-10T20:35:02.617Z,1018.49
2017-06-10T20:40:03.297Z,1018.51
2017-06-10T20:45:03.424Z,1018.5
2017-06-10T20:50:03.574Z,1018.47
2017-06-10T20:55:02.749Z,1018.52
2017-06-10T21:00:02.795Z,1018.51
2017-06-10T21:05:02.570Z,1018.52
2017-06-10T21:10:02.650Z,1018.51
2017-06-10T21:15:02.574Z,1018.46
2017-06-10T21:20:03.384Z,1018.49
2017-06-10T21:25:03.001Z,1018.44
2017-06-10T21:30:02.592Z,1018.46
2017-06-10T21:35:03.006Z,1018.43
2017-06-10T21:40:03.479Z,1018.39
2017-06-10T21:45:02.832Z,1018.42
2017-06-10T21:50:03.176Z,1018.39
2017-06-10T21:55:02.573Z,1018.41
2017-06-10T22:00:03.046Z,1018.38
2017-06-10T22:05:03.355Z,1018.29
2017-06-10T22:10:02.774Z,1018.34
2017-06-10T22:15:03.095Z,1018.28
2017-06-10T22:20:03.420Z,1018.33
2017-06-10T22:25:02.891Z,1018.32
2017-06-10T22:30:03.352Z,1018.27
2017-06-10T22:35:02.774Z,1018.27
2017-06-10T22:40:03.258Z,1018.18
2017-06-10T22:45:02.583Z,1018.19
2017-06-10T22:50:03.089Z,1018.2
2017-06-10T22:55:03.426Z,1018.19
2017-06-10T23:00:02.796Z,1018.17
2017-06-10T23:05:03.468Z,1018.19
2017-06-10T23:10:02.958Z,1018.2
2017-06-10T23:15:03.238Z,1018.19
2017-06-10T23:20:02.586Z,1018.19
2017-06-10T23:25:03.037Z,1018.18
2017-06-10T23:30:03.331Z,1018.12
2017-06-10T23:35:02.613Z,1018.11
2017-06-10T23:40:02.976Z,1018.02
2017-06-10T23:45:03.297Z,1018.04
2017-06-10T23:50:02.804Z,1018.06
2017-06-10T23:55:03.219Z,1018.05
